createdAt,value
2022-11-05T00:02:45.332Z,9.61
2022-11-05T00:05:31.663Z,9.67
2022-11-05T00:08:20.645Z,9.99
2022-11-05T00:10:47.892Z,9.88
2022-11-05T00:13:34.281Z,9.79
2022-11-05T00:16:39.883Z,9.78
2022-11-05T00:19:07.329Z,9.40
2022-11-05T00:21:55.202Z,9.43
2022-11-05T00:24:41.712Z,9.88
2022-11-05T00:27:09.263Z,9.87
2022-11-05T00:29:36.606Z,9.73
2022-11-05T00:32:04.050Z,9.89
2022-11-05T00:34:31.841Z,9.80
2022-11-05T00:36:59.079Z,9.78
2022-11-05T00:39:26.279Z,9.78
2022-11-05T00:42:12.266Z,9.64
2022-11-05T00:44:58.294Z,9.45
2022-11-05T00:47:44.407Z,9.70
2022-11-05T00:50:11.806Z,9.67
2022-11-05T00:52:57.946Z,9.47
2022-11-05T00:55:43.095Z,9.53
2022-11-05T00:58:11.919Z,9.39
2022-11-05T01:00:41.177Z,9.56
2022-11-05T01:03:14.030Z,9.63
2022-11-05T01:05:50.369Z,9.65
2022-11-05T01:08:19.342Z,9.54
2022-11-05T01:10:49.850Z,9.72
2022-11-05T01:13:19.737Z,9.57
2022-11-05T01:15:47.205Z,9.54
2022-11-05T01:18:14.471Z,9.72
2022-11-05T01:20:41.764Z,9.57
2022-11-05T01:23:13.448Z,9.47
2022-11-05T01:25:42.429Z,9.46
2022-11-05T01:28:10.261Z,9.40
2022-11-05T01:30:38.125Z,9.64
2022-11-05T01:33:05.767Z,9.62
2022-11-05T01:35:33.059Z,9.68
2022-11-05T01:38:00.394Z,9.45
2022-11-05T01:40:28.095Z,9.60
2022-11-05T01:42:55.369Z,9.34
2022-11-05T01:45:27.334Z,9.23
2022-11-05T01:48:16.334Z,9.19
2022-11-05T01:50:56.862Z,9.33
2022-11-05T01:53:30.980Z,9.24
2022-11-05T01:56:23.868Z,9.26
2022-11-05T01:58:53.924Z,9.34
2022-11-05T02:01:21.279Z,9.44
2022-11-05T02:03:51.075Z,9.51
2022-11-05T02:06:19.133Z,9.40
2022-11-05T02:09:03.652Z,9.37
2022-11-05T02:11:31.387Z,9.27
2022-11-05T02:13:58.892Z,9.13
2022-11-05T02:16:32.104Z,9.01
2022-11-05T02:19:13.007Z,9.26
2022-11-05T02:21:52.538Z,9.15
2022-11-05T02:24:41.542Z,9.02
2022-11-05T02:27:46.162Z,9.11
2022-11-05T02:30:34.822Z,9.01
2022-11-05T02:33:10.777Z,8.96
2022-11-05T02:35:47.158Z,9.10
2022-11-05T02:38:48.567Z,9.18
2022-11-05T02:41:25.693Z,9.17
2022-11-05T02:44:05.005Z,9.24
2022-11-05T02:46:54.148Z,9.38
2022-11-05T02:49:25.674Z,9.40
2022-11-05T02:51:58.258Z,9.19
2022-11-05T02:54:44.053Z,9.15
2022-11-05T02:57:11.286Z,9.32
2022-11-05T02:59:38.560Z,9.27
2022-11-05T03:02:06.115Z,9.44
2022-11-05T03:04:33.520Z,9.54
2022-11-05T03:07:19.042Z,9.37
2022-11-05T03:10:28.373Z,9.32
2022-11-05T03:13:04.821Z,9.33
2022-11-05T03:15:42.240Z,9.36
2022-11-05T03:18:18.625Z,9.34
2022-11-05T03:21:08.856Z,9.36
2022-11-05T03:23:48.202Z,9.37
2022-11-05T03:26:20.656Z,9.39
2022-11-05T03:28:52.040Z,9.53
2022-11-05T03:31:20.425Z,9.68
2022-11-05T03:33:52.240Z,9.67
2022-11-05T03:36:32.315Z,9.61
2022-11-05T03:39:03.598Z,9.58
2022-11-05T03:41:33.202Z,9.63
2022-11-05T03:44:04.137Z,9.94
2022-11-05T03:46:38.746Z,9.69
2022-11-05T03:49:07.733Z,9.56
2022-11-05T03:51:41.913Z,9.61
2022-11-05T03:54:09.610Z,9.37
2022-11-05T03:56:45.276Z,9.52
2022-11-05T03:59:12.743Z,9.49
2022-11-05T04:01:41.838Z,9.55
2022-11-05T04:04:09.541Z,9.37
2022-11-05T04:06:55.931Z,9.53
2022-11-05T04:09:41.987Z,9.72
2022-11-05T04:12:31.156Z,9.70
2022-11-05T04:14:58.346Z,9.81
2022-11-05T04:17:25.556Z,9.80
2022-11-05T04:20:11.054Z,9.82
2022-11-05T04:22:56.943Z,9.94
2022-11-05T04:25:24.319Z,10.03
2022-11-05T04:27:51.935Z,10.02
2022-11-05T04:30:19.775Z,10.16
2022-11-05T04:33:15.461Z,10.10
2022-11-05T04:35:45.218Z,9.95
2022-11-05T04:38:15.192Z,10.13
2022-11-05T04:40:43.161Z,9.72
2022-11-05T04:43:15.168Z,9.64
2022-11-05T04:45:43.494Z,9.73
2022-11-05T04:48:11.148Z,9.79
2022-11-05T04:50:38.492Z,9.63
2022-11-05T04:53:05.712Z,9.39
2022-11-05T04:55:33.471Z,9.35
2022-11-05T04:58:00.720Z,9.68
2022-11-05T05:00:28.107Z,9.58
2022-11-05T05:02:55.362Z,9.53
2022-11-05T05:05:23.089Z,9.61
2022-11-05T05:07:50.337Z,9.72
2022-11-05T05:10:17.637Z,9.84
2022-11-05T05:12:44.885Z,9.71
2022-11-05T05:15:12.134Z,9.70
2022-11-05T05:17:39.373Z,9.74
2022-11-05T05:20:25.988Z,9.74
2022-11-05T05:22:56.392Z,9.68
2022-11-05T05:25:23.743Z,9.79
2022-11-05T05:27:51.092Z,9.89
2022-11-05T05:30:18.556Z,9.95
2022-11-05T05:32:45.732Z,9.82
2022-11-05T05:35:13.115Z,9.97
2022-11-05T05:37:40.375Z,10.11
2022-11-05T05:40:08.996Z,10.28
2022-11-05T05:42:41.802Z,9.99
2022-11-05T05:45:11.456Z,10.11
2022-11-05T05:47:38.765Z,10.11
2022-11-05T05:50:06.264Z,9.87
2022-11-05T05:52:33.550Z,9.72
2022-11-05T05:55:00.723Z,9.80
2022-11-05T05:57:28.464Z,9.82
2022-11-05T05:59:55.672Z,10.08
2022-11-05T06:02:23.178Z,10.00
2022-11-05T06:04:50.543Z,9.91
2022-11-05T06:07:17.726Z,9.82
2022-11-05T06:09:45.049Z,9.92
2022-11-05T06:12:12.491Z,9.93
2022-11-05T06:14:40.086Z,9.93
2022-11-05T06:17:07.668Z,9.98
2022-11-05T06:19:34.929Z,9.87
2022-11-05T06:22:02.137Z,9.77
2022-11-05T06:24:29.483Z,9.92
2022-11-05T06:26:56.748Z,9.87
2022-11-05T06:29:24.020Z,9.92
2022-11-05T06:31:51.254Z,9.88
2022-11-05T06:34:18.440Z,9.93
2022-11-05T06:36:45.666Z,9.93
2022-11-05T06:39:12.899Z,9.95
2022-11-05T06:42:03.958Z,9.92
2022-11-05T06:44:27.935Z,10.01
2022-11-05T06:46:55.247Z,9.94
2022-11-05T06:49:24.687Z,9.92
2022-11-05T06:51:52.531Z,9.53
2022-11-05T06:54:19.942Z,9.47
2022-11-05T06:56:47.321Z,9.51
2022-11-05T06:59:14.827Z,9.47
2022-11-05T07:01:42.169Z,9.58
2022-11-05T07:04:12.085Z,9.59
2022-11-05T07:06:39.437Z,9.56
2022-11-05T07:09:06.603Z,9.66
2022-11-05T07:11:34.124Z,9.49
2022-11-05T07:14:01.369Z,9.71
2022-11-05T07:16:28.705Z,9.68
2022-11-05T07:18:56.076Z,9.66
2022-11-05T07:21:23.345Z,9.70
2022-11-05T07:23:50.648Z,9.78
2022-11-05T07:26:17.814Z,9.77
2022-11-05T07:28:45.455Z,9.67
2022-11-05T07:31:14.151Z,9.94
2022-11-05T07:33:41.380Z,9.97
2022-11-05T07:36:08.975Z,10.04
2022-11-05T07:38:36.243Z,9.80
2022-11-05T07:41:03.822Z,9.83
2022-11-05T07:43:31.268Z,9.90
2022-11-05T07:45:58.527Z,10.01
2022-11-05T07:48:25.734Z,10.17
2022-11-05T07:50:55.882Z,10.23
2022-11-05T07:53:25.603Z,10.39
2022-11-05T07:55:52.948Z,10.57
2022-11-05T07:58:20.275Z,10.70
2022-11-05T08:00:47.893Z,10.40
2022-11-05T08:03:17.491Z,10.43
2022-11-05T08:05:47.121Z,10.58
2022-11-05T08:08:16.983Z,10.67
2022-11-05T08:10:44.729Z,10.63
2022-11-05T08:13:13.417Z,10.58
2022-11-05T08:15:42.656Z,10.72
2022-11-05T08:18:15.462Z,10.77
2022-11-05T08:20:44.100Z,10.86
2022-11-05T08:23:11.687Z,10.79
2022-11-05T08:25:39.892Z,10.91
2022-11-05T08:28:10.915Z,11.02
2022-11-05T08:30:38.535Z,11.20
2022-11-05T08:33:09.060Z,11.31
2022-11-05T08:35:37.425Z,11.38
2022-11-05T08:38:06.416Z,11.62
2022-11-05T08:40:35.220Z,11.78
2022-11-05T08:43:04.115Z,11.89
2022-11-05T08:45:31.756Z,11.81
2022-11-05T08:48:03.775Z,11.53
2022-11-05T08:50:31.880Z,11.82
2022-11-05T08:52:59.452Z,11.79
2022-11-05T08:55:27.252Z,11.87
2022-11-05T08:57:58.191Z,11.97
2022-11-05T09:00:26.896Z,11.90
2022-11-05T09:02:54.447Z,12.02
2022-11-05T09:05:21.648Z,12.08
2022-11-05T09:07:48.875Z,12.27
2022-11-05T09:10:16.154Z,12.31
2022-11-05T09:12:46.376Z,12.25
2022-11-05T09:15:13.832Z,12.24
2022-11-05T09:17:41.233Z,12.30
2022-11-05T09:20:10.328Z,12.48
2022-11-05T09:22:42.166Z,12.78
2022-11-05T09:25:10.828Z,12.90
2022-11-05T09:27:38.214Z,13.05
2022-11-05T09:30:05.877Z,13.05
2022-11-05T09:32:33.498Z,13.06
2022-11-05T09:35:01.272Z,13.12
2022-11-05T09:37:29.247Z,13.27
2022-11-05T09:39:56.492Z,13.46
2022-11-05T09:42:31.412Z,13.66
2022-11-05T09:45:04.544Z,13.76
2022-11-05T09:47:45.479Z,13.69
2022-11-05T09:50:16.048Z,13.59
2022-11-05T09:52:43.665Z,13.56
2022-11-05T09:55:36.061Z,13.44
2022-11-05T09:58:09.835Z,13.71
2022-11-05T10:00:37.072Z,14.04
2022-11-05T10:03:07.007Z,14.57
2022-11-05T10:05:35.075Z,13.77
2022-11-05T10:08:10.638Z,13.55
2022-11-05T10:10:54.333Z,13.36
2022-11-05T10:13:35.410Z,13.40
2022-11-05T10:16:07.532Z,13.54
2022-11-05T10:18:37.064Z,13.51
2022-11-05T10:21:04.614Z,13.68
2022-11-05T10:23:32.290Z,13.90
2022-11-05T10:26:04.056Z,14.05
2022-11-05T10:28:33.309Z,14.14
2022-11-05T10:31:04.500Z,14.23
2022-11-05T10:33:40.192Z,14.30
2022-11-05T10:36:11.837Z,14.40
2022-11-05T10:38:39.031Z,14.30
2022-11-05T10:41:15.453Z,14.35
2022-11-05T10:43:48.653Z,14.57
2022-11-05T10:46:30.182Z,14.54
2022-11-05T10:49:06.663Z,14.36
2022-11-05T10:51:34.116Z,14.59
2022-11-05T10:54:05.918Z,14.67
2022-11-05T10:56:36.866Z,14.64
2022-11-05T10:59:11.902Z,14.65
2022-11-05T11:01:39.543Z,14.59
2022-11-05T11:04:12.269Z,14.63
2022-11-05T11:06:44.822Z,14.77
2022-11-05T11:09:31.173Z,14.66
2022-11-05T11:12:14.932Z,14.53
2022-11-05T11:14:42.282Z,14.59
2022-11-05T11:17:27.730Z,14.57
2022-11-05T11:20:22.041Z,14.64
2022-11-05T11:22:59.595Z,14.64
2022-11-05T11:25:30.863Z,14.59
2022-11-05T11:28:03.196Z,14.43
2022-11-05T11:30:32.076Z,14.66
2022-11-05T11:33:06.930Z,14.85
2022-11-05T11:35:36.959Z,15.01
2022-11-05T11:38:05.195Z,14.95
2022-11-05T11:40:37.418Z,14.95
2022-11-05T11:43:14.436Z,14.92
2022-11-05T11:45:50.108Z,15.03
2022-11-05T11:48:20.068Z,15.18
2022-11-05T11:50:48.573Z,15.11
2022-11-05T11:53:20.036Z,15.04
2022-11-05T11:56:05.424Z,15.07
2022-11-05T11:58:40.593Z,14.97
2022-11-05T12:01:39.013Z,15.06
2022-11-05T12:04:20.460Z,15.14
2022-11-05T12:06:55.691Z,15.14
2022-11-05T12:09:47.908Z,15.16
2022-11-05T12:12:16.746Z,15.33
2022-11-05T12:14:55.386Z,15.19
2022-11-05T12:17:41.515Z,15.01
2022-11-05T12:20:20.625Z,15.23
2022-11-05T12:23:24.963Z,15.25
2022-11-05T12:26:16.689Z,15.36
2022-11-05T12:29:18.300Z,15.48
2022-11-05T12:32:08.262Z,15.28
2022-11-05T12:35:04.700Z,15.26
2022-11-05T12:38:13.629Z,15.38
2022-11-05T12:40:56.833Z,15.55
2022-11-05T12:44:00.839Z,15.37
2022-11-05T12:46:48.870Z,15.48
2022-11-05T12:49:37.912Z,15.31
2022-11-05T12:52:07.777Z,15.52
2022-11-05T12:55:03.113Z,15.51
2022-11-05T12:57:32.675Z,15.42
2022-11-05T13:00:22.193Z,15.20
2022-11-05T13:02:49.468Z,15.29
2022-11-05T13:05:45.302Z,14.83
2022-11-05T13:08:16.492Z,14.97
2022-11-05T13:10:44.886Z,14.82
2022-11-05T13:13:21.164Z,14.34
2022-11-05T13:15:54.409Z,14.40
2022-11-05T13:18:27.395Z,14.62
2022-11-05T13:20:56.604Z,14.53
2022-11-05T13:23:37.993Z,14.75
2022-11-05T13:26:57.877Z,14.65
2022-11-05T13:29:46.921Z,14.63
2022-11-05T13:32:35.735Z,14.68
2022-11-05T13:35:05.587Z,14.32
2022-11-05T13:37:57.491Z,14.37
2022-11-05T13:40:44.527Z,14.41
2022-11-05T13:43:33.111Z,14.34
2022-11-05T13:46:06.409Z,14.48
2022-11-05T13:48:44.962Z,14.24
2022-11-05T13:51:37.656Z,14.29
2022-11-05T13:54:33.111Z,14.17
2022-11-05T13:57:09.605Z,14.23
2022-11-05T13:59:39.633Z,14.24
2022-11-05T14:02:39.204Z,14.07
2022-11-05T14:05:08.536Z,13.78
2022-11-05T14:07:38.549Z,14.10
2022-11-05T14:10:09.359Z,14.07
2022-11-05T14:12:39.052Z,14.24
2022-11-05T14:15:18.886Z,14.40
2022-11-05T14:17:58.442Z,14.56
2022-11-05T14:20:32.016Z,14.46
2022-11-05T14:23:25.956Z,14.65
2022-11-05T14:25:55.788Z,14.48
2022-11-05T14:28:35.052Z,14.39
2022-11-05T14:31:03.699Z,14.72
2022-11-05T14:33:35.097Z,14.97
2022-11-05T14:36:20.744Z,14.80
2022-11-05T14:38:52.988Z,14.30
2022-11-05T14:41:21.178Z,14.23
2022-11-05T14:43:57.332Z,14.22
2022-11-05T14:46:24.744Z,14.27
2022-11-05T14:48:55.205Z,14.16
2022-11-05T14:51:26.111Z,14.13
2022-11-05T14:54:05.560Z,14.10
2022-11-05T14:57:02.602Z,13.97
2022-11-05T14:59:31.869Z,14.25
2022-11-05T15:02:09.899Z,14.36
2022-11-05T15:04:42.730Z,14.36
2022-11-05T15:07:09.925Z,13.97
2022-11-05T15:10:10.621Z,13.99
2022-11-05T15:12:51.587Z,14.01
2022-11-05T15:15:24.762Z,14.08
2022-11-05T15:17:58.370Z,13.88
2022-11-05T15:20:37.287Z,13.91
2022-11-05T15:23:11.247Z,14.04
2022-11-05T15:26:16.440Z,14.14
2022-11-05T15:28:46.845Z,14.00
2022-11-05T15:31:14.070Z,14.07
2022-11-05T15:33:42.789Z,14.00
2022-11-05T15:36:26.419Z,13.86
2022-11-05T15:39:22.858Z,13.74
2022-11-05T15:41:41.667Z,13.60
2022-11-05T15:44:24.236Z,13.57
2022-11-05T15:47:25.396Z,13.61
2022-11-05T15:50:01.965Z,13.71
2022-11-05T15:52:36.454Z,13.82
2022-11-05T15:55:13.029Z,13.49
2022-11-05T15:57:58.200Z,13.36
2022-11-05T16:00:29.669Z,13.36
2022-11-05T16:03:45.070Z,13.37
2022-11-05T16:06:52.164Z,13.27
2022-11-05T16:09:22.182Z,13.39
2022-11-05T16:11:54.341Z,13.44
2022-11-05T16:14:22.139Z,13.33
2022-11-05T16:16:53.233Z,13.31
2022-11-05T16:19:40.571Z,13.33
2022-11-05T16:22:15.788Z,13.43
2022-11-05T16:24:43.772Z,13.40
2022-11-05T16:27:19.877Z,13.34
2022-11-05T16:29:53.086Z,13.25
2022-11-05T16:32:31.080Z,13.24
2022-11-05T16:35:00.830Z,13.24
2022-11-05T16:37:38.131Z,13.33
2022-11-05T16:40:25.589Z,13.28
2022-11-05T16:42:53.959Z,13.10
2022-11-05T16:45:25.445Z,13.14
2022-11-05T16:47:52.777Z,13.00
2022-11-05T16:50:30.451Z,12.99
2022-11-05T16:52:58.383Z,12.79
2022-11-05T16:55:25.781Z,12.78
2022-11-05T16:57:54.339Z,12.94
2022-11-05T17:00:22.537Z,12.98
2022-11-05T17:02:50.408Z,12.87
2022-11-05T17:05:24.245Z,12.88
2022-11-05T17:07:52.134Z,12.91
2022-11-05T17:10:20.696Z,12.83
2022-11-05T17:12:48.426Z,12.83
2022-11-05T17:15:24.154Z,12.81
2022-11-05T17:17:52.868Z,12.72
2022-11-05T17:20:49.996Z,12.74
2022-11-05T17:23:22.633Z,12.62
2022-11-05T17:25:52.336Z,12.50
2022-11-05T17:28:20.276Z,12.45
2022-11-05T17:30:52.876Z,12.33
2022-11-05T17:33:22.749Z,12.60
2022-11-05T17:35:50.631Z,12.61
2022-11-05T17:38:18.225Z,12.63
2022-11-05T17:40:45.614Z,12.53
2022-11-05T17:43:13.520Z,12.45
2022-11-05T17:45:42.801Z,12.51
2022-11-05T17:48:10.561Z,12.60
2022-11-05T17:50:45.811Z,12.86
2022-11-05T17:53:14.144Z,12.72
2022-11-05T17:55:42.710Z,12.63
2022-11-05T17:58:10.632Z,12.79
2022-11-05T18:00:38.828Z,12.84
2022-11-05T18:03:06.095Z,12.97
2022-11-05T18:05:34.342Z,12.93
2022-11-05T18:08:01.842Z,12.95
2022-11-05T18:10:29.230Z,12.95
2022-11-05T18:12:56.608Z,12.95
2022-11-05T18:15:23.891Z,12.76
2022-11-05T18:17:51.275Z,12.59
2022-11-05T18:20:19.718Z,12.69
2022-11-05T18:22:50.001Z,12.77
2022-11-05T18:25:17.510Z,12.75
2022-11-05T18:27:45.104Z,12.79
2022-11-05T18:30:15.522Z,12.68
2022-11-05T18:32:44.238Z,12.72
2022-11-05T18:35:13.405Z,12.57
2022-11-05T18:37:50.428Z,12.63
2022-11-05T18:40:17.722Z,12.74
2022-11-05T18:42:45.035Z,12.81
2022-11-05T18:45:12.379Z,12.80
2022-11-05T18:47:39.863Z,12.69
2022-11-05T18:50:09.389Z,12.79
2022-11-05T18:52:39.475Z,12.84
2022-11-05T18:55:07.556Z,12.85
2022-11-05T18:57:35.397Z,12.85
2022-11-05T19:00:05.090Z,12.84
2022-11-05T19:02:32.518Z,12.88
2022-11-05T19:05:27.465Z,12.94
2022-11-05T19:07:47.360Z,13.02
2022-11-05T19:10:15.047Z,12.96
2022-11-05T19:12:42.405Z,12.89
2022-11-05T19:15:10.268Z,12.85
2022-11-05T19:17:37.607Z,12.91
2022-11-05T19:20:05.658Z,12.81
2022-11-05T19:22:33.321Z,12.80
2022-11-05T19:25:00.608Z,12.82
2022-11-05T19:27:27.875Z,12.86
2022-11-05T19:29:55.136Z,12.80
2022-11-05T19:32:22.334Z,12.68
2022-11-05T19:34:49.846Z,12.69
2022-11-05T19:37:17.707Z,12.90
2022-11-05T19:39:45.316Z,12.93
2022-11-05T19:42:12.967Z,12.79
2022-11-05T19:44:40.866Z,12.74
2022-11-05T19:47:08.132Z,12.62
2022-11-05T19:49:35.360Z,12.80
2022-11-05T19:52:02.681Z,12.89
2022-11-05T19:54:30.120Z,12.65
2022-11-05T19:56:57.535Z,12.51
2022-11-05T19:59:24.901Z,12.69
2022-11-05T20:01:52.359Z,12.75
2022-11-05T20:04:20.167Z,12.86
2022-11-05T20:06:47.367Z,12.78
2022-11-05T20:09:23.279Z,12.73
2022-11-05T20:11:53.807Z,12.59
2022-11-05T20:14:21.510Z,12.69
2022-11-05T20:16:49.384Z,12.49
2022-11-05T20:19:19.240Z,12.74
2022-11-05T20:21:46.727Z,12.71
2022-11-05T20:24:22.288Z,12.80
2022-11-05T20:26:53.651Z,12.79
2022-11-05T20:29:21.431Z,13.00
2022-11-05T20:31:49.262Z,12.88
2022-11-05T20:34:16.551Z,12.76
2022-11-05T20:36:43.808Z,12.58
2022-11-05T20:39:11.982Z,12.59
2022-11-05T20:41:39.456Z,12.68
2022-11-05T20:44:06.871Z,12.70
2022-11-05T20:46:34.183Z,12.57
2022-11-05T20:49:01.403Z,12.60
2022-11-05T20:51:29.052Z,12.73
2022-11-05T20:53:58.532Z,12.78
2022-11-05T20:56:29.422Z,12.83
2022-11-05T20:58:58.486Z,12.73
2022-11-05T21:01:29.756Z,12.77
2022-11-05T21:03:57.222Z,12.79
2022-11-05T21:06:24.528Z,12.72
2022-11-05T21:08:52.334Z,12.75
2022-11-05T21:11:20.614Z,12.86
2022-11-05T21:13:48.516Z,12.92
2022-11-05T21:16:18.692Z,12.92
2022-11-05T21:18:46.912Z,12.86
2022-11-05T21:21:19.729Z,12.86
2022-11-05T21:23:47.659Z,12.90
2022-11-05T21:26:16.803Z,12.90
2022-11-05T21:28:44.149Z,12.79
2022-11-05T21:31:11.703Z,12.99
2022-11-05T21:33:39.317Z,12.79
2022-11-05T21:36:08.874Z,12.79
2022-11-05T21:38:37.793Z,12.63
2022-11-05T21:41:05.465Z,12.72
2022-11-05T21:43:33.086Z,12.72
2022-11-05T21:46:02.030Z,12.65
2022-11-05T21:48:30.318Z,12.65
2022-11-05T21:51:16.761Z,12.66
2022-11-05T21:54:02.629Z,12.57
2022-11-05T21:56:48.502Z,12.64
2022-11-05T21:59:36.633Z,12.68
2022-11-05T22:02:04.934Z,12.75
2022-11-05T22:04:34.542Z,12.63
2022-11-05T22:07:02.402Z,12.61
2022-11-05T22:09:30.058Z,12.65
2022-11-05T22:11:58.303Z,12.73
2022-11-05T22:14:26.374Z,12.63
2022-11-05T22:16:54.044Z,12.58
2022-11-05T22:19:22.836Z,12.62
2022-11-05T22:21:50.332Z,12.63
2022-11-05T22:24:25.764Z,12.69
2022-11-05T22:26:53.481Z,12.51
2022-11-05T22:29:20.752Z,12.42
2022-11-05T22:31:48.053Z,12.59
2022-11-05T22:34:15.549Z,12.56
2022-11-05T22:36:42.845Z,12.54
2022-11-05T22:39:11.398Z,12.41
2022-11-05T22:41:38.894Z,12.33
2022-11-05T22:44:06.309Z,12.60
2022-11-05T22:46:33.786Z,12.65
2022-11-05T22:49:01.175Z,12.59
2022-11-05T22:51:30.816Z,12.73
2022-11-05T22:53:59.017Z,12.69
2022-11-05T22:56:29.318Z,12.88
2022-11-05T22:58:57.121Z,12.58
2022-11-05T23:01:25.275Z,12.48
2022-11-05T23:03:54.013Z,12.54
2022-11-05T23:06:42.344Z,12.57
2022-11-05T23:09:43.764Z,12.51
2022-11-05T23:12:25.061Z,12.46
2022-11-05T23:14:53.467Z,12.64
2022-11-05T23:17:39.366Z,12.59
2022-11-05T23:20:28.838Z,12.48
2022-11-05T23:23:15.984Z,12.41
2022-11-05T23:25:43.544Z,12.52
2022-11-05T23:28:11.964Z,12.50
2022-11-05T23:31:02.302Z,12.36
2022-11-05T23:33:33.882Z,12.56
2022-11-05T23:36:20.121Z,12.36
2022-11-05T23:38:47.491Z,12.48
2022-11-05T23:41:33.357Z,12.37
2022-11-05T23:44:19.253Z,12.38
2022-11-05T23:47:22.020Z,12.41
2022-11-05T23:49:50.417Z,12.32
2022-11-05T23:52:17.758Z,12.23
2022-11-05T23:54:44.981Z,12.13
2022-11-05T23:57:12.260Z,12.23
2022-11-05T23:59:39.489Z,12.29
